createdAt,value
2018-07-19T00:00:54.740Z,18.72
2018-07-19T00:01:54.759Z,18.66
2018-07-19T00:02:54.771Z,18.69
2018-07-19T00:03:54.788Z,18.72
2018-07-19T00:04:54.803Z,18.70
2018-07-19T00:05:54.825Z,18.69
2018-07-19T00:06:54.898Z,18.65
2018-07-19T00:07:54.891Z,18.66
2018-07-19T00:08:54.871Z,18.70
2018-07-19T00:09:54.894Z,18.73
2018-07-19T00:10:54.900Z,18.70
2018-07-19T00:11:54.926Z,18.67
2018-07-19T00:12:54.939Z,18.70
2018-07-19T00:13:54.952Z,18.67
2018-07-19T00:14:54.967Z,18.70
2018-07-19T00:15:55.042Z,18.69
2018-07-19T00:16:55.001Z,18.70
2018-07-19T00:17:55.020Z,18.70
2018-07-19T00:18:55.094Z,18.73
2018-07-19T00:19:55.053Z,18.70
2018-07-19T00:20:55.064Z,18.81
2018-07-19T00:21:55.092Z,18.67
2018-07-19T00:22:55.100Z,18.69
2018-07-19T00:23:55.116Z,18.78
2018-07-19T00:24:55.188Z,18.72
2018-07-19T00:25:55.152Z,18.75
2018-07-19T00:26:55.170Z,18.67
2018-07-19T00:27:55.180Z,18.69
2018-07-19T00:28:55.200Z,18.66
2018-07-19T00:29:55.215Z,18.69
2018-07-19T00:30:55.237Z,18.67
2018-07-19T00:31:55.247Z,18.70
2018-07-19T00:32:55.267Z,18.67
2018-07-19T00:33:55.383Z,18.57
2018-07-19T00:34:55.301Z,18.65
2018-07-19T00:35:55.311Z,18.66
2018-07-19T00:36:55.335Z,18.67
2018-07-19T00:37:55.353Z,18.73
2018-07-19T00:38:55.370Z,18.60
2018-07-19T00:39:55.450Z,18.62
2018-07-19T00:40:55.402Z,18.69
2018-07-19T00:41:55.414Z,18.66
2018-07-19T00:42:55.430Z,18.67
2018-07-19T00:43:55.446Z,18.69
2018-07-19T00:44:55.466Z,18.57
2018-07-19T00:45:55.479Z,18.57
2018-07-19T00:46:55.494Z,18.57
2018-07-19T00:47:55.505Z,18.66
2018-07-19T00:48:55.578Z,18.54
2018-07-19T00:49:55.543Z,18.60
2018-07-19T00:50:55.561Z,18.70
2018-07-19T00:51:55.578Z,18.73
2018-07-19T00:52:55.588Z,18.63
2018-07-19T00:53:55.615Z,18.57
2018-07-19T00:54:55.676Z,18.55
2018-07-19T00:55:55.664Z,18.63
2018-07-19T00:56:55.661Z,18.55
2018-07-19T00:57:55.672Z,18.57
2018-07-19T00:58:55.690Z,18.66
2018-07-19T00:59:55.708Z,18.58
2018-07-19T01:00:55.729Z,18.55
2018-07-19T01:01:55.736Z,18.58
2018-07-19T01:02:55.756Z,18.55
2018-07-19T01:03:55.779Z,18.57
2018-07-19T01:04:55.787Z,18.51
2018-07-19T01:05:55.808Z,18.48
2018-07-19T01:06:55.824Z,18.60
2018-07-19T01:07:55.831Z,18.65
2018-07-19T01:08:55.856Z,18.55
2018-07-19T01:09:55.864Z,18.52
2018-07-19T01:10:55.884Z,18.45
2018-07-19T01:11:55.899Z,18.51
2018-07-19T01:12:55.922Z,18.45
2018-07-19T01:13:55.938Z,18.52
2018-07-19T01:14:55.948Z,18.47
2018-07-19T01:15:55.968Z,18.45
2018-07-19T01:16:55.983Z,18.50
2018-07-19T01:17:56.001Z,18.51
2018-07-19T01:18:56.023Z,18.52
2018-07-19T01:19:56.029Z,18.47
2018-07-19T01:20:56.052Z,18.47
2018-07-19T01:21:56.063Z,18.52
2018-07-19T01:22:56.083Z,18.47
2018-07-19T01:23:56.107Z,18.54
2018-07-19T01:24:56.167Z,18.48
2018-07-19T01:25:56.134Z,18.47
2018-07-19T01:26:56.143Z,18.54
2018-07-19T01:27:56.244Z,18.51
2018-07-19T01:28:56.170Z,18.52
2018-07-19T01:29:56.195Z,18.55
2018-07-19T01:30:56.219Z,18.50
2018-07-19T01:31:56.231Z,18.48
2018-07-19T01:32:56.247Z,18.57
2018-07-19T01:33:56.266Z,18.58
2018-07-19T01:34:56.273Z,18.48
2018-07-19T01:35:56.289Z,18.52
2018-07-19T01:36:56.305Z,18.54
2018-07-19T01:37:56.324Z,18.51
2018-07-19T01:38:56.337Z,18.54
2018-07-19T01:39:56.359Z,18.50
2018-07-19T01:40:56.373Z,18.48
2018-07-19T01:41:56.389Z,18.50
2018-07-19T01:42:56.400Z,18.48
2018-07-19T01:43:56.416Z,18.45
2018-07-19T01:44:56.431Z,18.45
2018-07-19T01:45:56.459Z,18.41
2018-07-19T01:46:56.471Z,18.42
2018-07-19T01:47:56.482Z,18.44
2018-07-19T01:48:56.505Z,18.44
2018-07-19T01:49:56.520Z,18.39
2018-07-19T01:50:56.559Z,18.44
2018-07-19T01:51:56.549Z,18.39
2018-07-19T01:52:56.570Z,18.45
2018-07-19T01:53:56.581Z,18.51
2018-07-19T01:54:56.600Z,18.41
2018-07-19T01:55:56.619Z,18.41
2018-07-19T01:56:56.633Z,18.36
2018-07-19T01:57:56.651Z,18.45
2018-07-19T01:58:56.670Z,18.47
2018-07-19T01:59:56.731Z,18.39
2018-07-19T02:00:56.756Z,18.27
2018-07-19T02:01:56.719Z,18.29
2018-07-19T02:02:56.769Z,18.33
2018-07-19T02:03:56.752Z,18.32
2018-07-19T02:04:56.761Z,18.30
2018-07-19T02:05:56.777Z,18.33
2018-07-19T02:06:56.799Z,18.39
2018-07-19T02:07:56.814Z,18.39
2018-07-19T02:08:56.849Z,18.47
2018-07-19T02:09:56.851Z,18.48
2018-07-19T02:10:56.857Z,18.44
2018-07-19T02:11:56.878Z,18.41
2018-07-19T02:12:56.898Z,18.36
2018-07-19T02:13:56.916Z,18.39
2018-07-19T02:14:56.932Z,18.36
2018-07-19T02:15:56.942Z,18.39
2018-07-19T02:16:56.958Z,18.39
2018-07-19T02:17:56.980Z,18.42
2018-07-19T02:18:56.998Z,18.45
2018-07-19T02:19:57.013Z,18.37
2018-07-19T02:20:57.026Z,18.39
2018-07-19T02:21:57.048Z,18.32
2018-07-19T02:22:57.054Z,18.36
2018-07-19T02:23:57.081Z,18.37
2018-07-19T02:24:57.144Z,18.48
2018-07-19T02:25:57.116Z,18.36
2018-07-19T02:26:57.122Z,18.39
2018-07-19T02:27:57.138Z,18.32
2018-07-19T02:28:57.154Z,18.29
2018-07-19T02:29:57.185Z,18.32
2018-07-19T02:30:57.191Z,18.32
2018-07-19T02:31:57.204Z,18.35
2018-07-19T02:32:57.222Z,18.35
2018-07-19T02:33:57.241Z,18.33
2018-07-19T02:34:57.250Z,18.30
2018-07-19T02:35:57.267Z,18.35
2018-07-19T02:36:57.286Z,18.35
2018-07-19T02:37:57.298Z,18.41
2018-07-19T02:38:57.314Z,18.39
2018-07-19T02:39:57.340Z,18.42
2018-07-19T02:40:57.351Z,18.42
2018-07-19T02:41:57.372Z,18.44
2018-07-19T02:42:57.393Z,18.47
2018-07-19T02:43:57.488Z,18.39
2018-07-19T02:44:57.418Z,18.36
2018-07-19T02:45:57.436Z,18.29
2018-07-19T02:46:57.450Z,18.36
2018-07-19T02:47:57.467Z,18.29
2018-07-19T02:48:57.484Z,18.35
2018-07-19T02:49:57.512Z,18.37
2018-07-19T02:50:57.518Z,18.47
2018-07-19T02:51:57.542Z,18.45
2018-07-19T02:52:57.550Z,18.51
2018-07-19T02:53:57.568Z,18.52
2018-07-19T02:54:57.589Z,18.45
2018-07-19T02:55:57.599Z,18.52
2018-07-19T02:56:57.629Z,18.50
2018-07-19T02:57:57.646Z,18.63
2018-07-19T02:58:57.657Z,18.54
2018-07-19T02:59:57.665Z,18.47
2018-07-19T03:02:05.467Z,18.51
2018-07-19T03:02:57.742Z,18.54
2018-07-19T03:03:57.727Z,18.51
2018-07-19T03:04:57.741Z,18.50
2018-07-19T03:05:57.766Z,18.60
2018-07-19T03:06:57.775Z,18.52
2018-07-19T03:07:57.836Z,18.52
2018-07-19T03:08:57.833Z,18.51
2018-07-19T03:09:57.825Z,18.54
2018-07-19T03:10:57.846Z,18.57
2018-07-19T03:11:57.855Z,18.52
2018-07-19T03:12:57.871Z,18.41
2018-07-19T03:13:57.897Z,18.48
2018-07-19T03:14:57.939Z,18.50
2018-07-19T03:15:57.937Z,18.41
2018-07-19T03:16:57.944Z,18.44
2018-07-19T03:17:57.955Z,18.54
2018-07-19T03:18:57.971Z,18.50
2018-07-19T03:19:57.994Z,18.52
2018-07-19T03:20:58.033Z,18.39
2018-07-19T03:21:58.022Z,18.37
2018-07-19T03:22:58.035Z,18.41
2018-07-19T03:23:58.057Z,18.45
2018-07-19T03:24:58.071Z,18.41
2018-07-19T03:25:58.093Z,18.44
2018-07-19T03:26:58.103Z,18.47
2018-07-19T03:27:58.117Z,18.47
2018-07-19T03:28:58.138Z,18.45
2018-07-19T03:29:58.154Z,18.37
2018-07-19T03:30:58.190Z,18.42
2018-07-19T03:31:58.191Z,18.44
2018-07-19T03:32:58.206Z,18.37
2018-07-19T03:33:58.215Z,18.50
2018-07-19T03:34:58.237Z,18.45
2018-07-19T03:35:58.254Z,18.45
2018-07-19T03:36:58.269Z,18.45
2018-07-19T03:37:58.292Z,18.41
2018-07-19T03:38:58.316Z,18.39
2018-07-19T03:39:58.338Z,18.45
2018-07-19T03:40:58.329Z,18.45
2018-07-19T03:41:58.350Z,18.42
2018-07-19T03:42:58.369Z,18.42
2018-07-19T03:43:58.379Z,18.35
2018-07-19T03:44:58.436Z,18.35
2018-07-19T03:45:58.422Z,18.30
2018-07-19T03:46:58.428Z,18.37
2018-07-19T03:47:58.453Z,18.33
2018-07-19T03:48:58.470Z,18.36
2018-07-19T03:49:58.486Z,18.42
2018-07-19T03:50:58.496Z,18.42
2018-07-19T03:51:58.515Z,18.42
2018-07-19T03:52:58.534Z,18.54
2018-07-19T03:53:58.546Z,18.50
2018-07-19T03:54:58.563Z,18.60
2018-07-19T03:55:58.592Z,18.67
2018-07-19T03:56:58.594Z,18.54
2018-07-19T03:57:58.613Z,18.73
2018-07-19T03:58:58.633Z,18.67
2018-07-19T03:59:58.648Z,18.54
2018-07-19T04:00:58.667Z,18.69
2018-07-19T04:01:58.809Z,18.62
2018-07-19T04:02:58.693Z,18.75
2018-07-19T04:03:58.712Z,18.69
2018-07-19T04:04:58.734Z,18.72
2018-07-19T04:05:58.747Z,18.73
2018-07-19T04:06:58.772Z,18.75
2018-07-19T04:07:58.777Z,18.75
2018-07-19T04:08:58.795Z,18.63
2018-07-19T04:09:58.814Z,18.65
2018-07-19T04:10:58.832Z,18.66
2018-07-19T04:11:58.850Z,18.70
2018-07-19T04:12:58.875Z,18.65
2018-07-19T04:13:58.884Z,18.69
2018-07-19T04:14:58.892Z,18.73
2018-07-19T04:15:58.912Z,18.66
2018-07-19T04:16:58.974Z,18.51
2018-07-19T04:17:58.941Z,18.54
2018-07-19T04:18:59.001Z,18.62
2018-07-19T04:19:58.977Z,18.60
2018-07-19T04:20:58.991Z,18.75
2018-07-19T04:21:59.011Z,18.69
2018-07-19T04:22:59.024Z,18.70
2018-07-19T04:23:59.041Z,18.69
2018-07-19T04:24:59.093Z,18.75
2018-07-19T04:25:59.083Z,18.67
2018-07-19T04:26:59.089Z,18.69
2018-07-19T04:27:59.111Z,18.69
2018-07-19T04:28:59.120Z,18.66
2018-07-19T04:29:59.153Z,18.72
2018-07-19T04:30:59.237Z,18.70
2018-07-19T04:31:59.173Z,18.78
2018-07-19T04:32:59.195Z,18.72
2018-07-19T04:33:59.213Z,18.73
2018-07-19T04:34:59.227Z,18.62
2018-07-19T04:35:59.243Z,18.63
2018-07-19T04:36:59.318Z,18.70
2018-07-19T04:37:59.276Z,18.66
2018-07-19T04:38:59.296Z,18.67
2018-07-19T04:39:59.320Z,18.67
2018-07-19T04:40:59.338Z,18.69
2018-07-19T04:41:59.343Z,18.63
2018-07-19T04:42:59.437Z,18.70
2018-07-19T04:43:59.375Z,18.69
2018-07-19T04:44:59.389Z,18.70
2018-07-19T04:45:59.419Z,18.55
2018-07-19T04:46:59.428Z,18.55
2018-07-19T04:47:59.443Z,18.52
2018-07-19T04:48:59.517Z,18.62
2018-07-19T04:49:59.475Z,18.55
2018-07-19T04:50:59.488Z,18.54
2018-07-19T04:51:59.513Z,18.69
2018-07-19T04:52:59.522Z,18.57
2018-07-19T04:53:59.543Z,18.55
2018-07-19T04:54:59.602Z,18.52
2018-07-19T04:55:59.578Z,18.57
2018-07-19T04:56:59.596Z,18.54
2018-07-19T04:57:59.611Z,18.63
2018-07-19T04:58:59.624Z,18.57
2018-07-19T04:59:59.641Z,18.55
2018-07-19T05:00:59.661Z,18.69
2018-07-19T05:01:59.686Z,18.70
2018-07-19T05:02:59.685Z,18.67
2018-07-19T05:03:59.698Z,18.66
2018-07-19T05:04:59.724Z,18.70
2018-07-19T05:05:59.748Z,18.70
2018-07-19T05:06:59.764Z,18.67
2018-07-19T05:07:59.774Z,18.70
2018-07-19T05:08:59.789Z,18.70
2018-07-19T05:09:59.801Z,18.80
2018-07-19T05:10:59.821Z,18.70
2018-07-19T05:11:59.837Z,18.78
2018-07-19T05:12:59.919Z,18.73
2018-07-19T05:13:59.890Z,18.81
2018-07-19T05:14:59.885Z,18.84
2018-07-19T05:15:59.909Z,18.88
2018-07-19T05:16:59.915Z,18.90
2018-07-19T05:17:59.939Z,18.92
2018-07-19T05:18:59.953Z,18.88
2018-07-19T05:19:59.970Z,18.92
2018-07-19T05:20:59.997Z,18.90
2018-07-19T05:22:00.001Z,18.94
2018-07-19T05:23:00.021Z,18.98
2018-07-19T05:24:00.037Z,19.00
2018-07-19T05:25:00.098Z,18.98
2018-07-19T05:26:00.072Z,18.99
2018-07-19T05:27:00.087Z,18.95
2018-07-19T05:28:00.113Z,18.94
2018-07-19T05:29:00.122Z,18.94
2018-07-19T05:30:00.140Z,18.90
2018-07-19T05:31:00.215Z,18.99
2018-07-19T05:32:00.177Z,19.02
2018-07-19T05:33:00.191Z,19.10
2018-07-19T05:34:00.210Z,19.10
2018-07-19T05:35:00.229Z,19.13
2018-07-19T05:36:00.254Z,19.11
2018-07-19T05:37:00.275Z,19.08
2018-07-19T05:38:00.270Z,19.00
2018-07-19T05:39:00.295Z,18.87
2018-07-19T05:40:00.302Z,18.92
2018-07-19T05:41:00.319Z,18.91
2018-07-19T05:42:00.338Z,18.94
2018-07-19T05:43:00.351Z,19.00
2018-07-19T05:44:00.369Z,18.88
2018-07-19T05:45:00.393Z,18.88
2018-07-19T05:46:00.409Z,18.92
2018-07-19T05:47:00.426Z,18.92
2018-07-19T05:48:00.439Z,18.90
2018-07-19T05:49:00.452Z,19.00
2018-07-19T05:50:00.510Z,19.00
2018-07-19T05:51:00.491Z,19.08
2018-07-19T05:52:00.510Z,19.16
2018-07-19T05:53:00.521Z,19.11
2018-07-19T05:54:00.536Z,19.18
2018-07-19T05:55:00.558Z,19.26
2018-07-19T05:56:00.573Z,19.33
2018-07-19T05:57:00.583Z,19.36
2018-07-19T05:58:00.610Z,19.33
2018-07-19T05:59:00.633Z,19.41
2018-07-19T06:00:00.639Z,19.44
2018-07-19T06:01:00.662Z,19.44
2018-07-19T06:02:00.673Z,19.37
2018-07-19T06:03:00.687Z,19.26
2018-07-19T06:04:00.710Z,19.36
2018-07-19T06:05:00.719Z,19.40
2018-07-19T06:06:00.740Z,19.48
2018-07-19T06:07:00.751Z,19.41
2018-07-19T06:08:00.772Z,19.39
2018-07-19T06:09:00.785Z,19.40
2018-07-19T06:10:00.810Z,19.41
2018-07-19T06:11:00.822Z,19.37
2018-07-19T06:12:00.832Z,19.43
2018-07-19T06:13:00.855Z,19.55
2018-07-19T06:14:00.871Z,19.61
2018-07-19T06:15:00.889Z,19.58
2018-07-19T06:16:00.919Z,19.55
2018-07-19T06:17:00.915Z,19.48
2018-07-19T06:18:00.943Z,19.58
2018-07-19T06:19:00.956Z,19.58
2018-07-19T06:20:00.972Z,19.51
2018-07-19T06:21:00.984Z,19.59
2018-07-19T06:22:01.006Z,19.68
2018-07-19T06:23:01.020Z,19.66
2018-07-19T06:24:01.036Z,19.66
2018-07-19T06:25:01.069Z,19.63
2018-07-19T06:26:01.072Z,19.62
2018-07-19T06:27:01.091Z,19.68
2018-07-19T06:28:01.106Z,19.61
2018-07-19T06:29:01.127Z,19.59
2018-07-19T06:30:01.147Z,19.63
2018-07-19T06:31:01.156Z,19.55
2018-07-19T06:32:01.168Z,19.66
2018-07-19T06:33:01.188Z,19.69
2018-07-19T06:34:01.207Z,19.71
2018-07-19T06:35:01.220Z,19.76
2018-07-19T06:36:01.240Z,19.65
2018-07-19T06:37:01.251Z,19.76
2018-07-19T06:38:01.266Z,19.66
2018-07-19T06:39:01.291Z,19.65
2018-07-19T06:40:01.308Z,19.76
2018-07-19T06:41:01.325Z,19.77
2018-07-19T06:42:01.347Z,19.99
2018-07-19T06:43:01.383Z,19.98
2018-07-19T06:44:01.375Z,19.99
2018-07-19T06:45:01.388Z,20.14
2018-07-19T06:46:01.412Z,20.08
2018-07-19T06:47:01.424Z,20.17
2018-07-19T06:48:01.440Z,20.21
2018-07-19T06:49:01.485Z,20.28
2018-07-19T06:50:01.477Z,20.21
2018-07-19T06:51:01.492Z,20.05
2018-07-19T06:52:01.511Z,20.21
2018-07-19T06:53:01.525Z,20.29
2018-07-19T06:54:01.546Z,20.48
2018-07-19T06:55:01.561Z,20.57
2018-07-19T06:56:01.579Z,20.55
2018-07-19T06:57:01.596Z,20.47
2018-07-19T06:58:01.620Z,20.59
2018-07-19T06:59:01.636Z,20.62
2018-07-19T07:00:01.651Z,20.70
2018-07-19T07:01:01.674Z,20.51
2018-07-19T07:02:01.683Z,20.58
2018-07-19T07:03:01.692Z,20.41
2018-07-19T07:04:01.711Z,20.36
2018-07-19T07:05:01.729Z,20.23
2018-07-19T07:06:01.745Z,20.32
2018-07-19T07:07:01.766Z,20.35
2018-07-19T07:08:01.779Z,20.24
2018-07-19T07:09:01.899Z,20.41
2018-07-19T07:10:01.817Z,20.36
2018-07-19T07:11:01.834Z,20.36
2018-07-19T07:12:01.849Z,20.36
2018-07-19T07:13:01.871Z,20.41
2018-07-19T07:14:01.890Z,20.58
2018-07-19T07:15:01.958Z,20.58
2018-07-19T07:16:01.919Z,20.67
2018-07-19T07:17:01.938Z,20.76
2018-07-19T07:18:01.953Z,21.13
2018-07-19T07:19:01.979Z,21.34
2018-07-19T07:20:01.987Z,21.24
2018-07-19T07:21:02.003Z,20.98
2018-07-19T07:22:02.036Z,21.03
2018-07-19T07:23:02.041Z,20.92
2018-07-19T07:24:02.052Z,20.77
2018-07-19T07:25:02.077Z,20.67
2018-07-19T07:26:02.088Z,20.64
2018-07-19T07:27:02.113Z,20.79
2018-07-19T07:28:02.127Z,20.67
2018-07-19T07:29:02.189Z,20.79
2018-07-19T07:30:02.172Z,20.80
2018-07-19T07:31:02.204Z,20.89
2018-07-19T07:32:02.200Z,21.01
2018-07-19T07:33:02.210Z,21.13
2018-07-19T07:34:02.233Z,21.29
2018-07-19T07:35:02.240Z,21.21
2018-07-19T07:36:02.262Z,20.99
2018-07-19T07:37:02.303Z,20.99
2018-07-19T07:38:02.294Z,21.16
2018-07-19T07:39:02.367Z,21.16
2018-07-19T07:40:02.334Z,21.14
2018-07-19T07:41:02.350Z,21.13
2018-07-19T07:42:02.374Z,20.98
2018-07-19T07:43:02.395Z,21.12
2018-07-19T07:44:02.440Z,21.19
2018-07-19T07:45:02.423Z,21.64
2018-07-19T07:46:02.429Z,21.69
2018-07-19T07:47:02.457Z,21.84
2018-07-19T07:48:02.476Z,21.90
2018-07-19T07:49:02.487Z,21.77
2018-07-19T07:50:02.504Z,21.64
2018-07-19T07:51:02.521Z,21.59
2018-07-19T07:52:02.544Z,21.69
2018-07-19T07:53:02.570Z,21.74
2018-07-19T07:54:02.573Z,21.90
2018-07-19T07:55:02.599Z,22.17
2018-07-19T07:56:02.608Z,22.45
2018-07-19T07:57:02.636Z,22.75
2018-07-19T07:58:02.653Z,22.82
2018-07-19T07:59:02.669Z,22.95
2018-07-19T08:00:02.684Z,22.97
2018-07-19T08:01:02.700Z,22.77
2018-07-19T08:02:02.717Z,22.42
2018-07-19T08:03:02.739Z,22.28
2018-07-19T08:04:02.749Z,22.35
2018-07-19T08:05:02.770Z,22.49
2018-07-19T08:06:02.791Z,22.37
2018-07-19T08:07:02.811Z,22.58
2018-07-19T08:08:02.827Z,22.45
2018-07-19T08:09:02.892Z,22.79
2018-07-19T08:10:02.858Z,23.05
2018-07-19T08:11:02.883Z,23.35
2018-07-19T08:12:02.900Z,23.58
2018-07-19T08:13:02.923Z,23.57
2018-07-19T08:14:02.932Z,23.31
2018-07-19T08:15:02.960Z,23.58
2018-07-19T08:16:02.982Z,23.57
2018-07-19T08:17:02.995Z,23.43
2018-07-19T08:18:03.004Z,23.35
2018-07-19T08:19:03.025Z,23.05
2018-07-19T08:20:03.044Z,23.04
2018-07-19T08:21:03.066Z,23.02
2018-07-19T08:22:03.081Z,23.36
2018-07-19T08:23:03.107Z,23.79
2018-07-19T08:24:03.121Z,23.47
2018-07-19T08:25:03.146Z,23.51
2018-07-19T08:26:03.157Z,23.35
2018-07-19T08:27:03.181Z,23.27
2018-07-19T08:28:03.188Z,23.36
2018-07-19T08:29:03.274Z,23.33
2018-07-19T08:30:03.240Z,23.20
2018-07-19T08:31:03.245Z,23.36
2018-07-19T08:32:03.269Z,23.25
2018-07-19T08:33:03.290Z,23.17
2018-07-19T08:34:03.315Z,23.02
2018-07-19T08:35:03.326Z,23.19
2018-07-19T08:36:03.408Z,23.39
2018-07-19T08:37:03.363Z,23.39
2018-07-19T08:38:03.381Z,23.38
2018-07-19T08:39:03.403Z,23.83
2018-07-19T08:40:03.416Z,24.21
2018-07-19T08:41:03.446Z,24.42
2018-07-19T08:42:03.464Z,24.91
2018-07-19T08:43:03.477Z,25.30
2018-07-19T08:44:03.531Z,25.38
2018-07-19T08:45:03.515Z,25.60
2018-07-19T08:46:03.530Z,25.55
2018-07-19T08:47:03.547Z,25.38
2018-07-19T08:48:03.571Z,25.36
2018-07-19T08:49:03.594Z,24.88
2018-07-19T08:50:03.652Z,24.57
2018-07-19T08:51:03.630Z,24.52
2018-07-19T08:52:03.648Z,24.50
2018-07-19T08:53:03.670Z,24.42
2018-07-19T08:54:03.689Z,24.09
2018-07-19T08:55:03.738Z,23.94
2018-07-19T08:56:03.752Z,23.90
2018-07-19T08:57:03.744Z,23.85
2018-07-19T08:58:03.771Z,23.93
2018-07-19T08:59:03.788Z,23.55
2018-07-19T09:00:03.803Z,23.88
2018-07-19T09:01:03.828Z,24.31
2018-07-19T09:02:03.852Z,24.61
2018-07-19T09:03:03.867Z,24.84
2018-07-19T09:04:03.875Z,25.08
2018-07-19T09:05:03.907Z,25.18
2018-07-19T09:06:03.923Z,24.93
2018-07-19T09:07:03.990Z,24.46
2018-07-19T09:08:03.957Z,24.24
2018-07-19T09:09:03.980Z,23.88
2018-07-19T09:10:04.004Z,23.83
2018-07-19T09:11:04.020Z,23.84
2018-07-19T09:12:04.036Z,23.61
2018-07-19T09:13:04.111Z,23.32
2018-07-19T09:14:04.118Z,23.28
2018-07-19T09:15:04.156Z,23.63
2018-07-19T09:16:04.116Z,23.43
2018-07-19T09:17:04.130Z,23.28
2018-07-19T09:18:04.155Z,23.04
2018-07-19T09:19:04.223Z,22.95
2018-07-19T09:20:04.191Z,22.82
2018-07-19T09:21:04.245Z,23.02
2018-07-19T09:22:04.225Z,23.48
2018-07-19T09:23:04.244Z,23.75
2018-07-19T09:24:04.263Z,24.12
2018-07-19T09:25:04.283Z,24.58
2018-07-19T09:26:04.312Z,25.23
2018-07-19T09:27:04.329Z,25.82
2018-07-19T09:28:04.344Z,25.72
2018-07-19T09:29:04.364Z,25.30
2018-07-19T09:30:04.387Z,25.42
2018-07-19T09:31:04.455Z,25.50
2018-07-19T09:32:04.416Z,25.75
2018-07-19T09:33:04.526Z,25.52
2018-07-19T09:34:04.459Z,25.45
2018-07-19T09:35:04.479Z,25.14
2018-07-19T09:36:04.499Z,25.36
2018-07-19T09:37:04.573Z,25.88
2018-07-19T09:38:04.538Z,25.92
2018-07-19T09:39:04.578Z,25.62
2018-07-19T09:40:04.579Z,25.28
2018-07-19T09:41:04.588Z,24.96
2018-07-19T09:42:04.619Z,24.84
2018-07-19T09:43:04.636Z,24.67
2018-07-19T09:44:04.649Z,24.46
2018-07-19T09:45:04.698Z,24.34
2018-07-19T09:46:04.691Z,24.20
2018-07-19T09:47:04.711Z,24.22
2018-07-19T09:48:04.735Z,24.21
2018-07-19T09:49:04.805Z,24.18
2018-07-19T09:50:04.773Z,24.05
2018-07-19T09:51:04.840Z,24.06
2018-07-19T09:52:04.815Z,23.91
2018-07-19T09:53:04.829Z,24.28
2018-07-19T09:54:04.851Z,24.40
2018-07-19T09:55:04.878Z,24.40
2018-07-19T09:56:04.892Z,24.69
2018-07-19T09:57:04.935Z,25.02
2018-07-19T09:58:04.927Z,25.51
2018-07-19T09:59:04.949Z,26.43
2018-07-19T10:00:04.965Z,27.10
2018-07-19T10:01:05.038Z,26.70
2018-07-19T10:02:05.003Z,26.43
2018-07-19T10:03:05.062Z,25.99
2018-07-19T10:04:05.043Z,25.75
2018-07-19T10:05:05.067Z,25.67
2018-07-19T10:06:05.092Z,25.79
2018-07-19T10:07:05.156Z,25.42
2018-07-19T10:08:05.126Z,25.03
2018-07-19T10:09:05.147Z,25.70
2018-07-19T10:10:05.239Z,25.70
2018-07-19T10:11:05.187Z,25.38
2018-07-19T10:12:05.211Z,25.39
2018-07-19T10:13:05.230Z,25.35
2018-07-19T10:14:05.254Z,25.25
2018-07-19T10:15:05.274Z,25.47
2018-07-19T10:16:05.282Z,26.39
2018-07-19T10:17:05.309Z,26.06
2018-07-19T10:18:05.316Z,25.87
2018-07-19T10:19:05.337Z,25.55
2018-07-19T10:20:05.362Z,25.15
2018-07-19T10:21:05.380Z,25.05
2018-07-19T10:22:05.400Z,24.91
2018-07-19T10:23:05.422Z,25.38
2018-07-19T10:24:05.439Z,26.07
2018-07-19T10:25:05.511Z,26.57
2018-07-19T10:26:05.476Z,27.00
2018-07-19T10:27:05.517Z,27.18
2018-07-19T10:28:05.521Z,26.95
2018-07-19T10:29:05.546Z,26.75
2018-07-19T10:30:05.567Z,26.97
2018-07-19T10:31:05.581Z,26.75
2018-07-19T10:32:05.721Z,26.87
2018-07-19T10:33:05.651Z,26.44
2018-07-19T10:34:05.676Z,26.45
2018-07-19T10:35:05.667Z,26.30
2018-07-19T10:36:05.681Z,26.40
2018-07-19T10:37:05.710Z,26.09
2018-07-19T10:38:05.720Z,25.85
2018-07-19T10:39:05.805Z,25.67
2018-07-19T10:40:05.766Z,25.24
2018-07-19T10:41:05.784Z,25.17
2018-07-19T10:42:05.805Z,26.06
2018-07-19T10:43:06.019Z,26.29
2018-07-19T10:44:05.848Z,25.82
2018-07-19T10:45:05.874Z,25.61
2018-07-19T10:46:05.920Z,25.95
2018-07-19T10:47:05.933Z,26.36
2018-07-19T10:48:05.938Z,26.07
2018-07-19T10:49:05.948Z,25.80
2018-07-19T10:50:05.967Z,25.51
2018-07-19T10:51:05.988Z,26.09
2018-07-19T10:52:06.015Z,26.07
2018-07-19T10:53:06.050Z,26.58
2018-07-19T10:54:06.051Z,27.49
2018-07-19T10:55:06.071Z,28.11
2018-07-19T10:56:06.088Z,28.56
2018-07-19T10:57:06.166Z,28.18
2018-07-19T10:58:06.192Z,27.66
2018-07-19T10:59:06.158Z,27.25
2018-07-19T11:00:06.182Z,27.13
2018-07-19T11:01:06.189Z,27.36
2018-07-19T11:02:06.220Z,26.88
2018-07-19T11:03:06.245Z,26.45
2018-07-19T11:04:06.257Z,26.18
2018-07-19T11:05:06.286Z,26.50
2018-07-19T11:06:06.306Z,27.34
2018-07-19T11:07:06.322Z,28.30
2018-07-19T11:08:06.345Z,28.36
2018-07-19T11:09:06.365Z,28.73
2018-07-19T11:10:06.388Z,28.41
2018-07-19T11:11:06.400Z,28.90
2018-07-19T11:12:06.420Z,29.26
2018-07-19T11:13:06.514Z,29.37
2018-07-19T11:14:06.467Z,29.63
2018-07-19T11:15:06.488Z,29.79
2018-07-19T11:16:06.581Z,29.95
2018-07-19T11:17:06.534Z,30.00
2018-07-19T11:18:06.561Z,30.04
2018-07-19T11:19:06.576Z,29.95
2018-07-19T11:20:06.603Z,30.20
2018-07-19T11:21:06.621Z,29.79
2018-07-19T11:22:06.667Z,29.55
2018-07-19T11:23:06.665Z,29.67
2018-07-19T11:24:06.697Z,29.53
2018-07-19T11:25:06.712Z,29.33
2018-07-19T11:26:06.732Z,29.42
2018-07-19T11:27:06.766Z,29.67
2018-07-19T11:28:06.789Z,28.68
2018-07-19T11:29:06.806Z,28.58
2018-07-19T11:30:06.824Z,29.31
2018-07-19T11:31:06.855Z,29.74
2018-07-19T11:32:06.863Z,30.01
2018-07-19T11:33:06.894Z,29.74
2018-07-19T11:34:06.918Z,29.87
2018-07-19T11:35:06.950Z,29.68
2018-07-19T11:36:06.963Z,29.70
2018-07-19T11:37:06.986Z,29.76
2018-07-19T11:38:07.006Z,29.04
2018-07-19T11:39:07.040Z,28.80
2018-07-19T11:40:07.051Z,28.04
2018-07-19T11:41:07.079Z,27.31
2018-07-19T11:42:07.103Z,27.09
2018-07-19T11:43:07.120Z,27.92
2018-07-19T11:44:07.140Z,28.44
2018-07-19T11:45:07.171Z,28.86
2018-07-19T11:46:07.232Z,28.74
2018-07-19T11:47:07.218Z,28.39
2018-07-19T11:48:07.234Z,28.29
2018-07-19T11:49:07.255Z,28.41
2018-07-19T11:50:07.279Z,29.12
2018-07-19T11:51:07.304Z,29.80
2018-07-19T11:52:07.343Z,30.29
2018-07-19T11:53:07.353Z,30.91
2018-07-19T11:54:07.374Z,31.14
2018-07-19T11:55:07.440Z,31.62
2018-07-19T11:56:07.418Z,31.70
2018-07-19T11:57:07.438Z,31.96
2018-07-19T11:58:07.548Z,32.48
2018-07-19T11:59:07.484Z,31.88
2018-07-19T12:00:07.504Z,31.06
2018-07-19T12:01:07.534Z,30.16
2018-07-19T12:02:07.552Z,29.98
2018-07-19T12:03:07.580Z,29.41
2018-07-19T12:04:07.596Z,30.24
2018-07-19T12:05:07.625Z,30.00
2018-07-19T12:06:07.648Z,29.68
2018-07-19T12:07:07.674Z,29.68
2018-07-19T12:08:07.692Z,29.85
2018-07-19T12:09:07.716Z,30.51
2018-07-19T12:10:07.788Z,30.92
2018-07-19T12:11:07.763Z,30.70
2018-07-19T12:12:07.779Z,29.80
2018-07-19T12:13:07.808Z,29.71
2018-07-19T12:14:07.826Z,30.01
2018-07-19T12:15:07.856Z,29.64
2018-07-19T12:16:07.878Z,29.63
2018-07-19T12:17:07.895Z,29.83
2018-07-19T12:18:07.969Z,30.10
2018-07-19T12:19:07.944Z,30.07
2018-07-19T12:20:07.967Z,29.85
2018-07-19T12:21:07.995Z,30.02
2018-07-19T12:22:08.076Z,30.60
2018-07-19T12:23:08.043Z,30.62
2018-07-19T12:24:08.071Z,30.16
2018-07-19T12:25:08.089Z,29.95
2018-07-19T12:26:08.110Z,29.24
2018-07-19T12:27:08.140Z,29.00
2018-07-19T12:28:08.158Z,29.36
2018-07-19T12:29:08.181Z,29.71
2018-07-19T12:30:08.203Z,29.23
2018-07-19T12:31:08.322Z,29.57
2018-07-19T12:32:08.248Z,30.01
2018-07-19T12:33:08.278Z,30.35
2018-07-19T12:34:08.302Z,30.23
2018-07-19T12:35:08.325Z,30.23
2018-07-19T12:36:08.345Z,29.86
2018-07-19T12:37:08.371Z,28.78
2018-07-19T12:38:08.397Z,27.69
2018-07-19T12:39:08.418Z,28.74
2018-07-19T12:40:08.441Z,29.55
2018-07-19T12:41:08.461Z,30.26
2018-07-19T12:42:08.488Z,30.53
2018-07-19T12:43:08.513Z,31.19
2018-07-19T12:44:08.533Z,31.43
2018-07-19T12:45:08.557Z,30.80
2018-07-19T12:46:08.578Z,30.13
2018-07-19T12:47:08.603Z,29.73
2018-07-19T12:48:08.623Z,29.76
2018-07-19T12:49:08.705Z,29.83
2018-07-19T12:50:08.673Z,29.70
2018-07-19T12:51:08.697Z,29.95
2018-07-19T12:52:08.759Z,30.35
2018-07-19T12:53:08.745Z,30.57
2018-07-19T12:54:08.779Z,30.99